createdAt,value
2023-05-14T00:04:13.232Z,9.20
2023-05-14T00:09:15.046Z,9.30
2023-05-14T00:14:16.778Z,9.10
2023-05-14T00:19:19.048Z,9.10
2023-05-14T00:24:20.890Z,8.90
2023-05-14T00:29:22.680Z,8.80
2023-05-14T00:34:24.958Z,8.60
2023-05-14T00:39:26.993Z,8.70
2023-05-14T00:44:28.871Z,8.60
2023-05-14T00:49:30.734Z,8.50
2023-05-14T00:54:33.859Z,8.40
2023-05-14T00:59:35.941Z,8.40
2023-05-14T01:04:38.785Z,8.50
2023-05-14T01:09:52.802Z,8.60
2023-05-14T01:15:06.541Z,8.70
2023-05-14T01:20:09.231Z,8.60
2023-05-14T01:25:11.276Z,8.60
2023-05-14T01:30:32.620Z,8.60
2023-05-14T01:35:34.867Z,8.60
2023-05-14T01:40:37.554Z,8.60
2023-05-14T01:45:39.409Z,8.60
2023-05-14T01:50:41.435Z,8.40
2023-05-14T01:55:43.290Z,8.40
2023-05-14T02:00:45.078Z,8.40
2023-05-14T02:05:46.931Z,8.20
2023-05-14T02:10:48.794Z,8.10
2023-05-14T02:15:50.761Z,8.10
2023-05-14T02:20:52.819Z,8.10
2023-05-14T02:25:54.948Z,8.00
2023-05-14T02:31:03.209Z,7.90
2023-05-14T02:36:05.230Z,8.00
2023-05-14T02:41:07.494Z,8.10
2023-05-14T02:46:09.321Z,8.10
2023-05-14T02:51:11.107Z,8.10
2023-05-14T02:56:12.872Z,8.10
2023-05-14T03:01:15.017Z,7.80
2023-05-14T03:06:17.390Z,7.80
2023-05-14T03:11:19.208Z,7.70
2023-05-14T03:16:20.985Z,7.70
2023-05-14T03:21:22.837Z,7.80
2023-05-14T03:26:24.656Z,7.60
2023-05-14T03:31:28.162Z,7.70
2023-05-14T03:36:32.084Z,7.50
2023-05-14T03:41:34.378Z,7.50
2023-05-14T03:46:36.185Z,7.50
2023-05-14T03:51:38.002Z,7.60
2023-05-14T03:56:41.358Z,7.70
2023-05-14T04:01:44.507Z,7.60
2023-05-14T04:06:46.292Z,7.80
2023-05-14T04:11:48.040Z,7.90
2023-05-14T04:16:49.961Z,7.90
2023-05-14T04:21:51.733Z,8.00
2023-05-14T04:26:53.494Z,7.90
2023-05-14T04:31:56.021Z,8.00
2023-05-14T04:36:57.918Z,8.00
2023-05-14T04:41:59.710Z,8.10
2023-05-14T04:47:02.125Z,8.20
2023-05-14T04:52:03.991Z,8.20
2023-05-14T04:57:05.861Z,8.40
2023-05-14T05:02:07.603Z,8.70
2023-05-14T05:07:09.392Z,8.90
2023-05-14T05:12:11.217Z,9.10
2023-05-14T05:17:13.048Z,9.80
2023-05-14T05:22:15.523Z,12.40
2023-05-14T05:27:17.371Z,15.40
2023-05-14T05:32:19.171Z,16.80
2023-05-14T05:37:22.257Z,18.60
2023-05-14T05:42:24.727Z,19.70
2023-05-14T05:47:26.538Z,19.90
2023-05-14T05:52:28.584Z,20.80
2023-05-14T05:57:30.414Z,19.50
2023-05-14T06:02:32.318Z,18.60
2023-05-14T06:07:34.419Z,17.70
2023-05-14T06:12:36.217Z,17.70
2023-05-14T06:17:38.884Z,18.00
2023-05-14T06:22:40.699Z,17.70
2023-05-14T06:27:42.861Z,16.70
2023-05-14T06:32:44.673Z,17.10
2023-05-14T06:37:46.494Z,17.40
2023-05-14T06:42:48.296Z,16.90
2023-05-14T06:47:50.208Z,16.00
2023-05-14T06:52:51.943Z,15.20
2023-05-14T06:57:53.729Z,15.10
2023-05-14T07:02:55.643Z,14.70
2023-05-14T07:07:57.467Z,14.80
2023-05-14T07:12:59.222Z,14.60
2023-05-14T07:18:01.126Z,14.50
2023-05-14T07:23:03.199Z,14.60
2023-05-14T07:28:05.133Z,14.60
2023-05-14T07:33:07.069Z,14.70
2023-05-14T07:38:08.934Z,14.80
2023-05-14T07:43:10.876Z,14.90
2023-05-14T07:48:12.780Z,15.20
2023-05-14T07:53:14.916Z,15.60
2023-05-14T07:58:16.749Z,15.70
2023-05-14T08:03:18.687Z,15.30
2023-05-14T08:08:20.619Z,15.30
2023-05-14T08:13:22.575Z,15.60
2023-05-14T08:18:24.560Z,15.70
2023-05-14T08:23:26.966Z,16.00
2023-05-14T08:28:28.759Z,16.40
2023-05-14T08:33:30.546Z,16.80
2023-05-14T08:38:32.417Z,16.40
2023-05-14T08:43:45.840Z,16.30
2023-05-14T08:48:51.900Z,16.10
2023-05-14T08:53:53.872Z,15.50
2023-05-14T08:58:55.731Z,15.40
2023-05-14T09:03:58.634Z,15.30
2023-05-14T09:09:00.927Z,15.20
2023-05-14T09:14:02.698Z,15.20
2023-05-14T09:19:05.548Z,15.20
2023-05-14T09:24:08.149Z,15.30
2023-05-14T09:29:09.951Z,15.70
2023-05-14T09:34:11.865Z,16.40
2023-05-14T09:39:13.740Z,16.70
2023-05-14T09:44:15.493Z,16.80
2023-05-14T09:49:17.981Z,16.70
2023-05-14T09:54:20.084Z,17.00
2023-05-14T09:59:22.027Z,17.00
2023-05-14T10:04:24.635Z,17.00
2023-05-14T10:09:28.982Z,16.90
2023-05-14T10:14:41.454Z,16.70
2023-05-14T10:19:47.375Z,16.70
2023-05-14T10:24:52.475Z,16.70
2023-05-14T10:29:55.992Z,16.80
2023-05-14T10:35:01.494Z,16.90
2023-05-14T10:40:08.749Z,17.00
2023-05-14T10:45:13.381Z,17.40
2023-05-14T10:50:15.921Z,17.50
2023-05-14T10:55:17.888Z,17.30
2023-05-14T11:00:19.770Z,17.10
2023-05-14T11:05:21.785Z,17.00
2023-05-14T11:10:28.346Z,16.70
2023-05-14T11:15:31.007Z,16.60
2023-05-14T11:20:33.031Z,16.80
2023-05-14T11:25:34.981Z,16.90
2023-05-14T11:30:37.980Z,16.60
2023-05-14T11:35:40.453Z,16.50
2023-05-14T11:40:42.285Z,16.20
2023-05-14T11:45:53.320Z,16.00
2023-05-14T11:50:55.177Z,15.80
2023-05-14T11:55:57.966Z,15.70
2023-05-14T12:01:00.018Z,15.40
2023-05-14T12:06:06.042Z,15.20
2023-05-14T12:11:09.533Z,15.00
2023-05-14T12:16:11.320Z,14.60
2023-05-14T12:21:13.305Z,14.30
2023-05-14T12:26:15.083Z,13.90
2023-05-14T12:31:16.902Z,13.60
2023-05-14T12:36:21.848Z,13.40
2023-05-14T12:41:24.125Z,13.30
2023-05-14T12:46:27.448Z,13.20
2023-05-14T12:51:29.818Z,13.10
2023-05-14T12:56:32.076Z,13.10
2023-05-14T13:01:33.929Z,13.10
2023-05-14T13:06:36.851Z,12.90
2023-05-14T13:11:39.016Z,12.90
2023-05-14T13:16:40.950Z,12.90
2023-05-14T13:21:43.802Z,13.00
2023-05-14T13:26:45.620Z,13.00
2023-05-14T13:31:48.217Z,13.00
2023-05-14T13:36:50.680Z,12.70
2023-05-14T13:41:53.001Z,12.80
2023-05-14T13:46:54.867Z,12.90
2023-05-14T13:51:56.921Z,13.00
2023-05-14T13:56:58.755Z,13.00
2023-05-14T14:02:00.772Z,13.00
2023-05-14T14:07:02.606Z,12.60
2023-05-14T14:12:05.238Z,12.50
2023-05-14T14:17:08.942Z,12.20
2023-05-14T14:22:12.574Z,12.10
2023-05-14T14:27:14.400Z,11.90
2023-05-14T14:32:16.252Z,12.00
2023-05-14T14:37:18.014Z,12.10
2023-05-14T14:42:19.842Z,12.10
2023-05-14T14:47:21.698Z,12.20
2023-05-14T14:52:24.734Z,12.30
2023-05-14T14:57:26.862Z,12.50
2023-05-14T15:02:28.839Z,12.60
2023-05-14T15:07:32.918Z,12.80
2023-05-14T15:12:34.852Z,12.80
2023-05-14T15:17:36.657Z,12.90
2023-05-14T15:22:38.477Z,12.90
2023-05-14T15:27:40.247Z,13.00
2023-05-14T15:32:42.823Z,13.10
2023-05-14T15:37:46.807Z,13.00
2023-05-14T15:42:48.593Z,13.10
2023-05-14T15:47:51.056Z,13.30
2023-05-14T15:52:53.422Z,13.50
2023-05-14T15:57:55.146Z,13.50
2023-05-14T16:02:57.409Z,13.60
2023-05-14T16:07:59.331Z,13.60
2023-05-14T16:13:01.119Z,13.60
2023-05-14T16:18:02.959Z,13.60
2023-05-14T16:23:04.782Z,13.60
2023-05-14T16:28:07.916Z,13.50
2023-05-14T16:33:09.817Z,13.50
2023-05-14T16:38:11.652Z,13.50
2023-05-14T16:43:13.641Z,13.40
2023-05-14T16:48:15.488Z,13.30
2023-05-14T16:53:17.323Z,13.20
2023-05-14T16:58:19.089Z,13.10
2023-05-14T17:03:21.227Z,13.10
2023-05-14T17:08:22.966Z,13.10
2023-05-14T17:13:24.837Z,12.90
2023-05-14T17:18:26.650Z,12.80
2023-05-14T17:23:28.433Z,12.70
2023-05-14T17:28:30.462Z,12.70
2023-05-14T17:33:32.246Z,12.60
2023-05-14T17:38:34.669Z,12.50
2023-05-14T17:43:36.429Z,12.50
2023-05-14T17:48:38.175Z,12.40
2023-05-14T17:53:39.994Z,12.30
2023-05-14T17:58:41.805Z,12.30
2023-05-14T18:03:43.748Z,12.10
2023-05-14T18:08:45.584Z,12.10
2023-05-14T18:13:47.323Z,12.10
2023-05-14T18:18:49.216Z,12.10
2023-05-14T18:23:51.071Z,12.10
2023-05-14T18:28:52.899Z,12.00
2023-05-14T18:33:54.764Z,12.00
2023-05-14T18:38:56.612Z,11.90
2023-05-14T18:43:58.333Z,11.90
2023-05-14T18:49:00.225Z,11.80
2023-05-14T18:54:01.949Z,11.70
2023-05-14T18:59:04.337Z,11.60
2023-05-14T19:04:06.457Z,11.50
2023-05-14T19:09:08.599Z,11.50
2023-05-14T19:14:11.336Z,11.30
2023-05-14T19:19:13.450Z,11.30
2023-05-14T19:24:15.929Z,11.30
2023-05-14T19:29:17.692Z,11.20
2023-05-14T19:34:19.417Z,11.20
2023-05-14T19:39:21.140Z,11.00
2023-05-14T19:44:22.934Z,10.90
2023-05-14T19:49:24.791Z,10.90
2023-05-14T19:54:26.512Z,11.00
2023-05-14T19:59:29.767Z,10.90
2023-05-14T20:04:31.554Z,10.80
2023-05-14T20:09:33.322Z,10.80
2023-05-14T20:14:35.065Z,10.80
2023-05-14T20:19:36.826Z,10.80
2023-05-14T20:24:39.108Z,10.80
2023-05-14T20:29:41.195Z,10.80
2023-05-14T20:34:42.960Z,10.80
2023-05-14T20:39:44.740Z,10.80
2023-05-14T20:44:48.352Z,10.90
2023-05-14T20:49:51.218Z,10.80
2023-05-14T20:54:53.252Z,10.60
2023-05-14T20:59:55.000Z,10.60
2023-05-14T21:04:56.830Z,10.70
2023-05-14T21:09:58.734Z,10.70
2023-05-14T21:15:00.486Z,10.80
2023-05-14T21:20:02.503Z,10.60
2023-05-14T21:25:04.592Z,10.50
2023-05-14T21:30:07.002Z,10.60
2023-05-14T21:35:09.234Z,10.60
2023-05-14T21:40:12.616Z,10.70
2023-05-14T21:45:14.503Z,10.70
2023-05-14T21:50:16.288Z,10.70
2023-05-14T21:55:18.137Z,10.60
2023-05-14T22:00:23.448Z,10.50
2023-05-14T22:05:25.823Z,10.50
2023-05-14T22:10:27.758Z,10.50
2023-05-14T22:15:29.489Z,10.40
2023-05-14T22:20:31.280Z,10.40
2023-05-14T22:25:33.119Z,10.50
2023-05-14T22:30:34.911Z,10.60
2023-05-14T22:35:36.812Z,10.50
2023-05-14T22:40:38.611Z,10.40
2023-05-14T22:45:40.353Z,10.40
2023-05-14T22:50:42.136Z,10.40
2023-05-14T22:55:43.980Z,10.40
2023-05-14T23:00:45.783Z,10.30
2023-05-14T23:05:47.588Z,10.30
2023-05-14T23:10:49.310Z,10.40
2023-05-14T23:15:51.111Z,10.40
2023-05-14T23:20:53.013Z,10.40
2023-05-14T23:25:55.980Z,10.50
2023-05-14T23:30:57.788Z,10.50
2023-05-14T23:35:59.570Z,10.50
2023-05-14T23:41:01.303Z,10.50
2023-05-14T23:46:03.156Z,10.50
2023-05-14T23:51:04.895Z,10.40
2023-05-14T23:56:06.984Z,10.50
